Time;durP1;ratioP1;P1;durP2;ratioP2;P2;SDS_P1;SDS_P2;PMS_P1;PMS_P2;Temp;Humidity;BMP_temperature;BMP_pressure;BME280_temperature;BME280_humidity;BME280_pressure;Samples;Min_cycle;Max_cycle;Signal;HPM_P1;HPM_P2
2021/05/25 00:00:22;;;;;;;6.95;3.95;;;;;;;19.86;56.07;94361.44;4995732;28;20030;-67
2021/05/25 00:02:48;;;;;;;;;;;;;;;19.80;55.25;94372.56;5013883;28;20477;-67
2021/05/25 00:05:18;;;;;;;7.13;3.35;;;;;;;19.73;54.40;94364.31;5012019;28;19913;-66
2021/05/25 00:07:44;;;;;;;14.25;4.65;;;;;;;19.70;54.89;94362.31;5013466;28;20149;-66
2021/05/25 00:10:10;;;;;;;7.45;4.80;;;;;;;19.63;55.86;94356.75;5013930;28;20164;-66
2021/05/25 00:12:36;;;;;;;11.02;5.30;;;;;;;19.60;56.42;94352.84;5013384;28;20022;-66
2021/05/25 00:15:05;;;;;;;8.00;4.95;;;;;;;19.52;56.54;94345.75;4999052;28;20044;-67
2021/05/25 00:17:31;;;;;;;8.75;4.78;;;;;;;19.45;56.85;94349.06;5032935;28;20410;-67
2021/05/25 00:19:56;;;;;;;13.43;6.13;;;;;;;19.38;57.38;94348.94;5032111;28;20033;-67
2021/05/25 00:22:21;;;;;;;20.50;5.32;;;;;;;19.39;57.12;94347.81;5025733;28;20033;-66
2021/05/25 00:24:47;;;;;;;7.85;5.13;;;;;;;19.40;57.00;94354.00;5013444;28;20505;-67
2021/05/25 00:27:12;;;;;;;10.85;5.03;;;;;;;19.34;57.00;94358.91;4995688;28;20049;-67
2021/05/25 00:29:37;;;;;;;16.98;5.15;;;;;;;19.27;56.77;94350.66;5013226;28;20028;-66
2021/05/25 00:32:03;;;;;;;9.68;4.68;;;;;;;19.18;57.24;94358.22;5013039;28;20383;-67
2021/05/25 00:34:29;;;;;;;8.98;4.82;;;;;;;19.08;57.49;94354.16;4995547;28;20434;-67
2021/05/25 00:36:54;;;;;;;10.60;3.97;;;;;;;19.04;57.11;94348.66;5012877;28;20025;-67
2021/05/25 00:39:19;;;;;;;11.98;4.40;;;;;;;18.99;56.98;94340.03;5012846;28;20022;-67
2021/05/25 00:41:45;;;;;;;9.80;4.20;;;;;;;18.97;57.41;94332.31;5013124;28;20063;-67
2021/05/25 00:44:10;;;;;;;9.48;3.75;;;;;;;18.91;57.68;94325.63;5012901;28;20038;-66
2021/05/25 00:46:37;;;;;;;7.95;4.63;;;;;;;18.91;57.92;94316.72;4995376;28;20034;-67
2021/05/25 00:49:04;;;;;;;10.38;4.35;;;;;;;18.85;57.81;94313.56;5012829;28;20132;-67
2021/05/25 00:51:30;;;;;;;8.93;3.40;;;;;;;18.77;58.16;94312.59;5012523;28;20042;-66
2021/05/25 00:53:55;;;;;;;9.25;4.00;;;;;;;18.75;58.03;94308.69;4995193;28;20030;-66
2021/05/25 00:56:21;;;;;;;10.35;4.18;;;;;;;18.70;57.52;94315.13;5012608;28;20072;-66
2021/05/25 00:58:48;;;;;;;8.52;4.30;;;;;;;18.62;57.57;94316.91;5012631;28;20026;-67
2021/05/25 01:01:13;;;;;;;9.45;5.28;;;;;;;18.59;58.05;94316.81;4994926;28;20493;-67
2021/05/25 01:03:38;;;;;;;14.15;8.55;;;;;;;18.57;59.28;94319.09;5009196;28;20036;-66
2021/05/25 01:06:04;;;;;;;14.15;8.82;;;;;;;18.51;59.97;94337.47;5011244;28;20037;-67
2021/05/25 01:08:29;;;;;;;15.05;8.63;;;;;;;18.49;60.34;94344.34;4994925;28;20164;-67
2021/05/25 01:11:02;;;;;;;14.52;9.27;;;;;;;18.43;60.38;94360.03;4994991;28;20069;-66
2021/05/25 01:13:28;;;;;;;16.20;9.60;;;;;;;18.37;60.84;94354.09;4994711;28;20568;-67
2021/05/25 01:15:54;;;;;;;13.88;9.48;;;;;;;18.38;60.63;94344.13;5012479;28;20022;-66
2021/05/25 01:18:20;;;;;;;20.17;8.63;;;;;;;18.39;60.71;94345.66;5006845;28;20084;-67
2021/05/25 01:20:48;;;;;;;9.60;7.38;;;;;;;18.32;60.90;94345.50;5032293;28;20482;-67
2021/05/25 01:23:15;;;;;;;13.15;8.95;;;;;;;18.28;61.24;94344.63;5014285;28;20029;-67
2021/05/25 01:25:43;;;;;;;17.90;8.80;;;;;;;18.21;61.18;94340.63;5032050;28;20416;-67
2021/05/25 01:28:10;;;;;;;21.58;10.82;;;;;;;18.21;61.40;94337.94;4996864;28;20030;-67
2021/05/25 01:30:42;;;;;;;14.30;10.23;;;;;;;18.22;61.52;94336.81;5012347;28;20026;-67
2021/05/25 01:33:09;;;;;;;24.17;10.48;;;;;;;18.18;61.59;94337.88;4997506;28;20025;-67
2021/05/25 01:35:35;;;;;;;17.70;9.45;;;;;;;18.12;61.60;94331.19;5013797;28;20504;-67
2021/05/25 01:38:03;;;;;;;15.63;9.80;;;;;;;18.08;61.84;94331.09;5031595;28;20029;-66
2021/05/25 01:40:29;;;;;;;13.70;7.38;;;;;;;18.07;61.71;94318.72;5031650;28;20497;-67
2021/05/25 01:42:55;;;;;;;11.45;7.60;;;;;;;18.06;61.55;94311.78;5013940;28;20052;-66
2021/05/25 01:45:26;;;;;;;17.48;7.10;;;;;;;18.04;61.64;94322.13;5013624;28;20034;-66
2021/05/25 01:47:53;;;;;;;12.10;7.07;;;;;;;17.98;61.53;94324.28;5022309;28;20026;-67
2021/05/25 01:50:20;;;;;;;9.98;7.25;;;;;;;17.98;61.46;94316.19;5002815;28;20025;-66
2021/05/25 01:52:57;;;;;;;14.55;5.85;;;;;;;17.95;61.42;94321.50;5031536;28;20095;-67
2021/05/25 01:55:33;;;;;;;15.80;7.32;;;;;;;17.91;61.77;94324.13;5002869;28;20064;-66
2021/05/25 01:58:02;;;;;;;9.55;5.82;;;;;;;17.87;61.81;94325.16;4993957;28;20037;-67
2021/05/25 02:00:28;;;;;;;13.57;5.90;;;;;;;17.80;61.75;94315.72;5011693;28;20056;-67
2021/05/25 02:02:53;;;;;;;10.65;5.68;;;;;;;17.79;62.25;94313.41;4993989;28;20030;-67
2021/05/25 02:05:19;;;;;;;12.57;6.00;;;;;;;17.76;62.19;94309.47;5011569;28;20061;-67
2021/05/25 02:07:50;;;;;;;14.48;5.53;;;;;;;17.74;62.05;94306.34;4993870;28;20036;-67
2021/05/25 02:10:28;;;;;;;13.35;5.65;;;;;;;17.76;62.25;94306.78;5031024;28;20104;-67
2021/05/25 02:12:57;;;;;;;10.95;5.63;;;;;;;17.74;62.12;94313.66;5013194;28;20025;-66
2021/05/25 02:15:23;;;;;;;10.38;5.68;;;;;;;17.71;62.10;94307.03;5012952;28;20021;-67
2021/05/25 02:17:49;;;;;;;10.70;5.28;;;;;;;17.71;62.28;94304.34;5029686;28;20057;-66
2021/05/25 02:20:15;;;;;;;14.98;4.80;;;;;;;17.72;62.04;94311.28;5030670;28;20091;-66
2021/05/25 02:22:40;;;;;;;11.98;5.47;;;;;;;17.64;62.46;94302.22;5031151;28;20099;-66
2021/05/25 02:25:06;;;;;;;10.05;6.70;;;;;;;17.57;62.67;94290.50;5006239;28;20034;-66
2021/05/25 02:27:31;;;;;;;15.63;5.93;;;;;;;17.53;63.10;94295.81;5009661;28;20057;-67
2021/05/25 02:29:57;;;;;;;9.98;5.20;;;;;;;17.44;63.44;94298.69;5014706;28;20507;-67
2021/05/25 02:32:22;;;;;;;12.73;6.55;;;;;;;17.42;63.60;94294.72;5030817;28;20083;-66
2021/05/25 02:34:48;;;;;;;12.60;6.93;;;;;;;17.35;63.80;94289.94;5028314;28;20029;-67
2021/05/25 02:37:13;;;;;;;11.07;5.88;;;;;;;17.32;63.93;94279.88;5017898;28;20441;-66
2021/05/25 02:39:39;;;;;;;14.48;6.80;;;;;;;17.30;63.96;94287.53;5011631;28;20026;-66
2021/05/25 02:42:05;;;;;;;11.35;6.80;;;;;;;17.31;63.81;94288.31;5023262;28;20401;-67
2021/05/25 02:44:30;;;;;;;13.00;7.05;;;;;;;17.29;64.10;94283.25;5014451;28;20390;-67
2021/05/25 02:46:56;;;;;;;15.52;7.07;;;;;;;17.25;64.18;94287.75;5024475;28;20100;-67
2021/05/25 02:49:28;;;;;;;14.15;7.38;;;;;;;17.21;64.18;94298.44;5107644;27;20932;-66
2021/05/25 02:51:53;;;;;;;12.18;6.20;;;;;;;17.18;64.10;94295.66;5123544;27;20027;-66
2021/05/25 02:54:19;;;;;;;16.17;5.70;;;;;;;17.13;64.11;94293.22;5107445;28;20028;-66
2021/05/25 02:56:44;;;;;;;11.23;5.90;;;;;;;17.08;64.23;94302.31;5110058;27;20062;-66
2021/05/25 02:59:10;;;;;;;7.22;5.07;;;;;;;17.02;64.47;94304.47;5118180;28;20024;-66
2021/05/25 03:01:35;;;;;;;13.90;6.60;;;;;;;17.01;64.66;94307.50;5127994;27;20371;-66
2021/05/25 03:04:01;;;;;;;10.93;7.10;;;;;;;16.98;64.88;94303.59;5107947;27;20059;-66
2021/05/25 03:06:26;;;;;;;14.00;8.73;;;;;;;16.95;65.16;94295.41;5106103;28;20024;-66
2021/05/25 03:08:52;;;;;;;16.05;10.10;;;;;;;16.96;65.25;94283.53;5124244;27;20023;-66
2021/05/25 03:11:17;;;;;;;13.85;9.75;;;;;;;16.96;65.33;94295.06;5105800;28;20065;-66
2021/05/25 03:13:42;;;;;;;18.13;10.27;;;;;;;16.97;65.56;94296.63;5112693;28;20019;-66
2021/05/25 03:16:08;;;;;;;19.80;10.80;;;;;;;16.91;65.64;94286.44;5127416;27;20043;-66
2021/05/25 03:18:33;;;;;;;16.77;12.57;;;;;;;16.87;65.95;94291.72;5112546;27;20397;-65
2021/05/25 03:20:59;;;;;;;15.73;10.98;;;;;;;16.85;66.15;94291.28;5109837;28;20028;-65
2021/05/25 03:23:24;;;;;;;17.35;10.85;;;;;;;16.86;66.16;94300.94;5125259;28;20115;-66
2021/05/25 03:25:52;;;;;;;23.13;11.07;;;;;;;16.89;65.93;94304.84;5106024;28;20026;-66
2021/05/25 03:28:18;;;;;;;16.63;11.23;;;;;;;16.91;65.91;94300.69;5118171;27;20015;-66
2021/05/25 03:30:43;;;;;;;19.80;10.95;;;;;;;16.96;65.47;94299.69;5117655;27;20103;-66
2021/05/25 03:33:09;;;;;;;24.15;10.20;;;;;;;16.99;65.49;94305.13;5116231;28;20051;-67
2021/05/25 03:35:35;;;;;;;16.10;9.85;;;;;;;17.01;65.92;94310.97;5127334;27;20041;-66
2021/05/25 03:38:00;;;;;;;25.30;10.63;;;;;;;17.02;66.06;94309.84;5116158;28;20043;-67
2021/05/25 03:40:26;;;;;;;19.42;10.63;;;;;;;17.05;66.35;94314.53;5120028;27;20034;-67
2021/05/25 03:42:53;;;;;;;20.90;11.25;;;;;;;17.07;66.52;94318.81;5127379;27;20566;-67
2021/05/25 03:45:20;;;;;;;23.25;11.25;;;;;;;17.11;66.22;94327.78;5119557;27;20036;-67
2021/05/25 03:47:45;;;;;;;22.02;12.45;;;;;;;17.11;65.87;94335.84;5106580;28;20048;-67
2021/05/25 03:50:12;;;;;;;18.25;12.98;;;;;;;17.13;65.68;94336.28;5105159;28;20491;-67
2021/05/25 03:52:43;;;;;;;25.65;12.50;;;;;;;17.17;65.81;94337.19;5105207;28;20020;-67
2021/05/25 03:55:32;;;;;;;16.35;11.98;;;;;;;17.16;65.66;94341.00;5105228;28;20497;-67
2021/05/25 04:00:42;;;;;;;20.73;10.73;;;;;;;17.10;65.49;94324.31;5113817;28;20452;-67
2021/05/25 04:03:08;;;;;;;21.00;11.38;;;;;;;17.15;65.63;94339.44;5111717;28;20024;-67
2021/05/25 04:05:33;;;;;;;17.50;12.57;;;;;;;17.22;65.31;94351.19;5113318;28;20024;-67
2021/05/25 04:07:59;;;;;;;18.52;11.73;;;;;;;17.31;65.77;94351.03;5111598;28;20062;-67
2021/05/25 04:10:25;;;;;;;16.00;11.32;;;;;;;17.34;66.03;94336.09;5112897;28;20040;-66
2021/05/25 04:12:50;;;;;;;18.25;11.02;;;;;;;17.45;65.62;94332.56;5089752;28;20035;-67
2021/05/25 04:15:16;;;;;;;20.73;11.80;;;;;;;17.56;65.40;94332.84;5100909;28;20031;-66
2021/05/25 04:17:42;;;;;;;19.98;12.00;;;;;;;17.61;64.97;94324.50;5109898;28;20035;-66
2021/05/25 04:20:10;;;;;;;23.17;12.52;;;;;;;17.73;64.50;94336.34;5112670;28;20016;-67
2021/05/25 04:22:35;;;;;;;28.02;12.18;;;;;;;17.84;63.69;94338.19;5108833;28;20116;-67
2021/05/25 04:25:01;;;;;;;16.48;12.15;;;;;;;17.96;63.14;94347.34;5111291;28;20058;-67
2021/05/25 04:27:26;;;;;;;22.58;12.65;;;;;;;18.06;63.07;94352.22;5103944;28;20032;-67
2021/05/25 04:29:52;;;;;;;22.95;13.07;;;;;;;18.14;63.17;94351.25;5092328;28;20483;-67
2021/05/25 04:32:17;;;;;;;18.55;12.75;;;;;;;18.18;62.55;94348.66;5090588;28;20085;-67
2021/05/25 04:34:42;;;;;;;17.98;13.13;;;;;;;18.29;62.18;94348.91;5092125;28;20443;-68
2021/05/25 04:37:08;;;;;;;21.60;13.13;;;;;;;18.34;62.07;94359.41;5099371;28;20012;-67
2021/05/25 04:39:33;;;;;;;21.23;12.50;;;;;;;18.43;62.23;94370.81;5107357;28;20016;-66
2021/05/25 04:41:58;;;;;;;18.77;11.98;;;;;;;18.45;60.88;94374.72;5100377;28;20110;-67
2021/05/25 04:44:24;;;;;;;19.38;12.40;;;;;;;18.47;60.87;94368.22;5112280;27;20398;-67
2021/05/25 04:46:49;;;;;;;23.35;11.75;;;;;;;18.52;60.93;94368.75;5099521;28;20156;-67
2021/05/25 04:49:15;;;;;;;27.90;12.60;;;;;;;18.63;60.53;94364.34;5102149;28;20031;-67
2021/05/25 04:51:40;;;;;;;28.42;12.35;;;;;;;18.72;60.29;94363.38;5100815;28;20097;-67
2021/05/25 04:54:05;;;;;;;18.95;11.32;;;;;;;18.79;60.16;94366.28;5090243;28;20114;-67
2021/05/25 04:56:33;;;;;;;25.08;11.48;;;;;;;18.86;59.84;94369.13;5091590;28;20024;-67
2021/05/25 04:58:59;;;;;;;20.55;10.75;;;;;;;18.98;59.60;94365.50;5106394;28;20108;-67
2021/05/25 05:01:25;;;;;;;21.65;11.32;;;;;;;19.03;59.54;94362.50;5111669;28;20116;-66
2021/05/25 05:03:50;;;;;;;18.27;11.23;;;;;;;19.14;59.06;94378.97;5111722;28;20414;-67
2021/05/25 05:06:15;;;;;;;20.88;11.38;;;;;;;19.27;58.68;94377.69;5111904;28;20049;-75
2021/05/25 05:08:43;;;;;;;18.02;11.13;;;;;;;19.40;58.19;94371.00;5111422;28;20106;-74
2021/05/25 05:11:09;;;;;;;22.00;10.75;;;;;;;19.51;58.03;94376.59;5110591;28;20051;-74
2021/05/25 05:13:34;;;;;;;20.88;10.88;;;;;;;19.59;57.49;94372.13;5111528;28;20506;-74
2021/05/25 05:16:00;;;;;;;23.35;11.07;;;;;;;19.65;57.43;94370.69;5110176;28;20031;-74
2021/05/25 05:18:25;;;;;;;25.73;11.00;;;;;;;19.70;56.96;94366.91;5110294;28;20089;-71
2021/05/25 05:20:51;;;;;;;19.55;11.45;;;;;;;19.62;56.78;94374.09;5109979;28;20394;-71
2021/05/25 05:23:17;;;;;;;23.25;12.00;;;;;;;19.61;57.23;94381.44;5097408;28;20016;-75
2021/05/25 05:25:42;;;;;;;20.90;11.23;;;;;;;19.56;56.68;94391.75;5094091;28;20173;-75
2021/05/25 05:28:08;;;;;;;24.52;10.50;;;;;;;19.65;57.07;94390.41;5099491;28;20443;-75
2021/05/25 05:30:35;;;;;;;24.38;11.63;;;;;;;19.71;56.24;94395.56;5100190;28;20064;-75
2021/05/25 05:33:00;;;;;;;22.00;11.02;;;;;;;19.71;56.49;94393.63;5101284;28;20016;-76
2021/05/25 05:35:26;;;;;;;22.55;10.05;;;;;;;19.82;56.91;94391.91;5101347;28;20027;-78
2021/05/25 05:37:51;;;;;;;21.55;8.63;;;;;;;19.91;56.43;94388.19;5103923;28;20028;-77
2021/05/25 05:40:17;;;;;;;22.45;9.70;;;;;;;19.98;55.85;94385.59;5107341;28;20054;-77
2021/05/25 05:42:43;;;;;;;15.38;8.32;;;;;;;20.05;55.58;94388.44;5099035;28;20126;-77
2021/05/25 05:45:09;;;;;;;16.75;8.70;;;;;;;20.15;56.02;94393.25;5095085;28;20115;-78
2021/05/25 05:47:34;;;;;;;18.63;8.27;;;;;;;20.24;55.95;94391.09;5091120;28;20127;-78
2021/05/25 05:50:09;;;;;;;18.92;9.38;;;;;;;20.31;55.23;94395.03;5094622;28;20582;-78
2021/05/25 05:52:35;;;;;;;16.77;8.57;;;;;;;20.46;54.61;94396.09;5090459;28;20038;-78
2021/05/25 05:55:00;;;;;;;18.23;9.27;;;;;;;20.54;54.19;94397.75;5100399;28;20038;-76
2021/05/25 05:57:26;;;;;;;19.63;8.73;;;;;;;20.62;54.78;94389.41;5098015;28;20024;-80
2021/05/25 05:59:52;;;;;;;15.38;8.18;;;;;;;20.75;54.20;94387.25;5099356;28;20114;-80
2021/05/25 06:02:17;;;;;;;14.32;8.68;;;;;;;20.84;53.51;94392.41;5106815;28;20118;-81
2021/05/25 06:04:42;;;;;;;18.77;8.65;;;;;;;20.93;53.56;94394.88;5100704;28;20541;-80
2021/05/25 06:07:08;;;;;;;15.82;9.05;;;;;;;21.06;52.53;94390.78;5119344;27;20027;-81
2021/05/25 06:09:36;;;;;;;17.63;9.43;;;;;;;21.15;52.24;94383.16;5100918;28;20024;-80
2021/05/25 06:12:02;;;;;;;26.35;10.10;;;;;;;21.31;52.21;94391.13;5101418;28;20023;-80
2021/05/25 06:14:27;;;;;;;19.70;7.85;;;;;;;21.39;51.59;94391.97;5092071;28;20034;-80
2021/05/25 06:16:53;;;;;;;15.52;7.55;;;;;;;21.46;52.45;94383.97;5118815;27;20028;-80
2021/05/25 06:19:18;;;;;;;22.35;7.57;;;;;;;21.59;51.42;94387.97;5092706;28;20028;-80
2021/05/25 06:21:44;;;;;;;9.65;6.55;;;;;;;21.72;50.98;94383.09;5105531;28;20464;-81
2021/05/25 06:24:10;;;;;;;12.23;6.65;;;;;;;21.87;50.54;94392.16;5103057;28;20028;-79
2021/05/25 06:26:35;;;;;;;15.35;6.93;;;;;;;22.02;50.20;94390.38;5097520;28;20019;-79
2021/05/25 06:29:00;;;;;;;16.48;6.80;;;;;;;22.14;49.97;94383.88;5089904;28;20020;-79
2021/05/25 06:31:26;;;;;;;14.25;8.10;;;;;;;22.16;50.15;94390.50;5096976;28;20031;-79
2021/05/25 06:33:51;;;;;;;14.45;7.55;;;;;;;22.28;50.14;94385.97;5099710;28;20032;-74
2021/05/25 06:36:17;;;;;;;20.70;6.75;;;;;;;22.36;49.51;94388.38;5099424;28;20036;-75
2021/05/25 06:38:42;;;;;;;10.55;6.55;;;;;;;22.31;49.50;94380.59;5113291;27;20557;-75
2021/05/25 06:41:08;;;;;;;12.43;6.90;;;;;;;22.39;49.36;94376.00;5104198;28;20020;-76
2021/05/25 06:43:33;;;;;;;11.85;6.70;;;;;;;22.46;48.91;94370.63;5100837;28;20496;-76
2021/05/25 06:45:59;;;;;;;10.85;6.10;;;;;;;22.51;48.66;94359.41;5113066;28;20054;-76
2021/05/25 06:48:24;;;;;;;25.20;8.63;;;;;;;22.61;48.58;94361.44;5105674;28;20077;-76
2021/05/25 06:50:50;;;;;;;17.52;7.75;;;;;;;22.78;48.46;94367.34;5114879;28;20039;-76
2021/05/25 06:53:16;;;;;;;15.57;6.97;;;;;;;22.94;48.40;94364.31;5103865;28;20024;-76
2021/05/25 06:55:42;;;;;;;14.95;6.32;;;;;;;23.00;48.21;94360.13;5104821;28;20032;-77
2021/05/25 06:58:08;;;;;;;11.73;5.82;;;;;;;23.04;47.32;94360.94;5091961;28;20030;-79
2021/05/25 07:00:33;;;;;;;11.68;6.82;;;;;;;23.15;47.39;94366.44;5104934;28;20024;-77
2021/05/25 07:02:58;;;;;;;16.92;7.95;;;;;;;23.28;46.72;94348.59;5088883;28;20106;-79
2021/05/25 07:05:24;;;;;;;16.02;7.85;;;;;;;23.39;46.94;94344.00;5100137;28;20114;-78
2021/05/25 07:07:50;;;;;;;15.07;8.70;;;;;;;23.46;46.88;94347.91;5105113;28;20024;-75
2021/05/25 07:10:16;;;;;;;22.60;9.50;;;;;;;23.53;47.07;94345.19;5107811;28;20087;-77
2021/05/25 07:12:42;;;;;;;20.33;8.40;;;;;;;23.63;46.78;94345.25;5103765;28;20024;-77
2021/05/25 07:15:07;;;;;;;15.40;8.48;;;;;;;23.79;45.74;94339.50;5093388;28;20046;-79
2021/05/25 07:17:33;;;;;;;14.48;8.60;;;;;;;23.93;45.45;94349.59;5094486;28;20026;-77
2021/05/25 07:19:58;;;;;;;15.00;8.77;;;;;;;24.05;44.72;94340.28;5107661;28;20027;-80
2021/05/25 07:22:24;;;;;;;14.77;8.05;;;;;;;24.12;45.15;94337.59;5107534;28;20028;-83
2021/05/25 07:24:50;;;;;;;14.55;8.35;;;;;;;24.14;45.39;94326.28;5110820;28;20429;-78
2021/05/25 07:27:16;;;;;;;20.55;9.73;;;;;;;24.26;44.83;94327.84;5101643;28;20100;-79
2021/05/25 07:29:42;;;;;;;13.30;8.48;;;;;;;24.34;44.67;94319.31;5101770;28;20039;-80
2021/05/25 07:32:08;;;;;;;14.05;7.65;;;;;;;24.30;44.83;94313.09;5095023;28;20031;-80
2021/05/25 07:34:33;;;;;;;13.60;8.55;;;;;;;24.34;44.24;94323.97;5098958;28;20201;-77
2021/05/25 07:36:59;;;;;;;15.95;8.23;;;;;;;24.35;44.08;94331.75;5122900;27;20024;-74
2021/05/25 07:39:25;;;;;;;12.95;8.48;;;;;;;24.36;44.07;94330.59;5096306;28;20114;-81
2021/05/25 07:41:50;;;;;;;14.50;8.60;;;;;;;24.32;44.39;94342.63;5098640;28;20046;-76
2021/05/25 07:44:16;;;;;;;14.35;8.70;;;;;;;24.36;44.29;94332.50;5100214;28;20436;-75
2021/05/25 07:46:41;;;;;;;20.90;8.65;;;;;;;24.38;44.16;94327.47;5104277;28;20057;-77
2021/05/25 07:49:07;;;;;;;14.90;6.32;;;;;;;24.24;44.60;94339.13;5095845;28;20039;-77
2021/05/25 07:51:33;;;;;;;10.85;6.07;;;;;;;24.02;44.65;94341.84;5096066;28;20028;-79
2021/05/25 07:53:58;;;;;;;12.27;6.50;;;;;;;24.07;44.61;94332.50;5098563;28;20084;-77
2021/05/25 07:56:24;;;;;;;13.70;7.40;;;;;;;24.17;44.39;94345.34;5106992;28;20391;-76
2021/05/25 07:58:50;;;;;;;13.15;6.80;;;;;;;24.18;44.69;94338.75;5093629;28;20016;-76
2021/05/25 08:01:15;;;;;;;23.98;7.97;;;;;;;24.26;44.59;94344.19;5098938;28;20027;-78
2021/05/25 08:03:41;;;;;;;16.65;6.57;;;;;;;24.33;44.39;94333.31;5107609;28;20123;-82
2021/05/25 08:06:06;;;;;;;25.55;6.30;;;;;;;24.34;44.52;94330.22;5096557;28;20077;-81
2021/05/25 08:08:31;;;;;;;25.95;7.07;;;;;;;24.30;44.20;94325.91;5103853;28;20024;-83
2021/05/25 08:10:59;;;;;;;17.65;7.40;;;;;;;24.31;43.91;94336.41;5112209;28;20106;-81
2021/05/25 08:13:25;;;;;;;15.95;6.70;;;;;;;24.27;44.27;94338.38;5103420;28;20027;-78
2021/05/25 08:15:52;;;;;;;19.67;8.15;;;;;;;24.30;44.14;94336.78;5114129;28;20441;-80
2021/05/25 08:21:03;;;;;;;14.48;6.57;;;;;;;24.36;44.24;94329.78;5101032;28;20161;-79
2021/05/25 08:23:29;;;;;;;16.75;6.43;;;;;;;24.38;44.50;94330.97;5102640;28;20028;-77
2021/05/25 08:25:54;;;;;;;13.82;6.65;;;;;;;24.41;44.05;94326.69;5100964;28;20023;-77
2021/05/25 08:28:20;;;;;;;18.35;7.18;;;;;;;24.43;44.02;94322.41;5110910;28;20062;-77
2021/05/25 08:30:45;;;;;;;13.25;5.90;;;;;;;24.53;43.45;94317.38;5105030;27;20054;-77
2021/05/25 08:33:13;;;;;;;15.02;6.57;;;;;;;24.49;43.86;94322.78;5098212;28;20035;-78
2021/05/25 08:35:39;;;;;;;20.90;7.28;;;;;;;24.54;44.13;94322.41;5097594;28;20077;-79
2021/05/25 08:38:06;;;;;;;17.20;8.07;;;;;;;24.56;44.17;94325.53;5090370;28;20467;-76
2021/05/25 08:40:34;;;;;;;14.68;6.95;;;;;;;24.61;43.58;94319.69;5098982;28;20213;-78
2021/05/25 08:43:00;;;;;;;17.58;7.70;;;;;;;24.53;43.82;94326.31;5100321;28;20454;-77
2021/05/25 08:45:25;;;;;;;15.82;8.18;;;;;;;24.60;43.99;94326.31;5123557;27;20073;-77
2021/05/25 08:47:53;;;;;;;16.10;7.00;;;;;;;24.71;43.44;94320.84;5102771;28;20079;-83
2021/05/25 08:50:25;;;;;;;15.32;6.75;;;;;;;24.74;43.85;94319.28;5092433;28;20119;-81
2021/05/25 08:52:51;;;;;;;;;;;;;;;24.81;43.48;94313.81;5104529;28;20110;-83
2021/05/25 08:55:16;;;;;;;23.55;8.43;;;;;;;24.77;43.52;94324.72;5098398;28;19912;-84
2021/05/25 08:57:41;;;;;;;15.45;7.30;;;;;;;24.84;43.18;94318.47;5107008;28;20094;-79
2021/05/25 09:00:09;;;;;;;16.45;7.10;;;;;;;24.88;43.02;94321.97;5103242;28;20028;-78
2021/05/25 09:02:35;;;;;;;13.35;7.88;;;;;;;24.89;43.49;94318.06;5104611;28;20162;-81
2021/05/25 09:05:08;;;;;;;16.08;7.13;;;;;;;24.92;43.19;94311.84;5107278;28;20107;-80
2021/05/25 09:07:37;;;;;;;13.93;7.68;;;;;;;24.96;42.97;94315.31;5104868;28;20069;-80
2021/05/25 09:10:05;;;;;;;12.90;7.63;;;;;;;25.01;42.33;94309.50;5105024;28;20111;-77
2021/05/25 09:12:39;;;;;;;21.25;8.70;;;;;;;25.10;42.40;94309.06;5103436;28;20049;-81
2021/05/25 09:15:05;;;;;;;17.75;8.80;;;;;;;25.21;42.22;94300.84;5106825;28;20035;-81
2021/05/25 09:17:31;;;;;;;18.80;9.02;;;;;;;25.27;42.00;94301.22;5108286;28;20035;-78
2021/05/25 09:19:58;;;;;;;15.52;8.93;;;;;;;25.29;42.21;94304.34;5107582;28;20402;-77
2021/05/25 09:22:35;;;;;;;20.38;8.50;;;;;;;25.37;42.93;94295.72;5109973;28;20031;-78
2021/05/25 09:25:12;;;;;;;21.73;8.90;;;;;;;25.33;42.23;94294.97;5095326;28;20024;-77
2021/05/25 09:27:41;;;;;;;15.13;7.55;;;;;;;25.43;42.63;94294.13;5102185;28;20084;-69
2021/05/25 09:30:25;;;;;;;17.60;8.27;;;;;;;25.43;41.61;94291.41;5101929;28;20024;-70
2021/05/25 09:32:52;;;;;;;22.00;7.70;;;;;;;25.51;41.61;94292.16;5099437;28;20028;-71
2021/05/25 09:35:21;;;;;;;14.60;7.82;;;;;;;25.53;41.27;94286.28;5101149;28;20023;-70
2021/05/25 09:37:52;;;;;;;21.67;9.10;;;;;;;25.53;41.64;94286.28;5092304;28;20042;-71
2021/05/25 09:40:23;;;;;;;14.80;7.47;;;;;;;25.62;41.05;94287.41;5099075;28;20030;-71
2021/05/25 09:42:51;;;;;;;16.13;8.32;;;;;;;25.71;41.17;94297.13;5100133;28;20154;-71
2021/05/25 09:45:17;;;;;;;16.08;8.38;;;;;;;25.71;40.54;94286.19;5102388;28;20023;-70
2021/05/25 09:47:55;;;;;;;17.95;8.45;;;;;;;25.61;41.21;94285.84;5095597;28;20044;-70
2021/05/25 09:50:25;;;;;;;20.40;7.53;;;;;;;25.65;40.72;94290.53;5102723;28;20040;-70
2021/05/25 09:53:06;;;;;;;20.17;11.13;;;;;;;25.67;40.75;94279.97;5107410;28;20039;-70
2021/05/25 09:55:46;;;;;;;20.08;9.15;;;;;;;25.62;41.05;94286.63;5107534;28;20050;-70
2021/05/25 09:58:12;;;;;;;17.50;8.15;;;;;;;25.62;41.60;94281.16;5100417;28;20443;-72
2021/05/25 10:00:39;;;;;;;24.35;8.63;;;;;;;25.55;41.07;94290.16;5093044;28;20054;-72
2021/05/25 10:03:14;;;;;;;14.50;8.55;;;;;;;25.43;41.81;94285.94;5095623;28;20027;-72
2021/05/25 10:05:46;;;;;;;14.05;8.15;;;;;;;25.43;42.18;94280.47;5112106;28;20088;-72
2021/05/25 10:08:14;;;;;;;20.92;8.30;;;;;;;25.51;42.06;94275.00;5112095;28;20084;-72
2021/05/25 10:10:41;;;;;;;15.27;7.63;;;;;;;25.54;41.69;94272.22;5112116;28;20023;-73
2021/05/25 10:13:07;;;;;;;16.50;7.50;;;;;;;25.55;41.60;94273.78;5095814;28;20036;-72
2021/05/25 10:15:32;;;;;;;21.45;8.05;;;;;;;25.61;41.86;94260.50;5089697;28;20027;-72
2021/05/25 10:20:25;;;;;;;16.55;7.85;;;;;;;25.52;42.21;94252.75;5104697;28;20035;-72
2021/05/25 10:22:51;;;;;;;13.85;8.05;;;;;;;25.50;42.11;94262.53;5100154;28;20533;-72
2021/05/25 10:25:18;;;;;;;12.35;7.20;;;;;;;25.42;42.19;94259.03;5108091;28;20108;-72
2021/05/25 10:27:45;;;;;;;11.10;7.38;;;;;;;25.40;42.92;94262.19;5103255;28;20023;-72
2021/05/25 10:30:23;;;;;;;10.70;7.57;;;;;;;25.41;42.96;94241.91;5095874;28;20046;-72
2021/05/25 10:32:50;;;;;;;13.73;8.02;;;;;;;25.53;42.88;94248.84;5102855;28;20077;-72
2021/05/25 10:35:20;;;;;;;19.65;7.80;;;;;;;25.62;42.63;94238.28;5103149;28;20026;-72
2021/05/25 10:38:05;;;;;;;14.82;7.28;;;;;;;25.66;42.75;94227.31;5094463;28;20020;-72
2021/05/25 10:40:38;;;;;;;16.70;7.45;;;;;;;25.65;42.24;94227.75;5099979;28;20397;-72
2021/05/25 10:43:44;;;;;;;10.77;7.28;;;;;;;25.63;42.45;94231.63;5093754;28;20039;-72
2021/05/25 10:46:09;;;;;;;22.35;7.55;;;;;;;25.55;42.14;94224.69;5042157;28;20040;-72
2021/05/25 10:49:17;;;;;;;12.40;6.60;;;;;;;25.53;42.90;94226.25;5019300;28;20049;-80
2021/05/25 10:51:49;;;;;;;9.63;7.07;;;;;;;25.51;42.61;94229.38;5086891;28;20036;-73
2021/05/25 10:54:30;;;;;;;11.90;6.88;;;;;;;25.49;43.49;94228.22;5109870;28;20483;-73
2021/05/25 10:57:00;;;;;;;10.65;6.07;;;;;;;25.48;43.11;94230.16;5109563;28;20043;-72
2021/05/25 10:59:25;;;;;;;11.85;6.68;;;;;;;25.61;43.06;94228.53;5096526;28;20478;-72
2021/05/25 11:01:58;;;;;;;8.75;5.97;;;;;;;25.73;43.24;94227.28;5102477;28;20027;-72
2021/05/25 11:04:34;;;;;;;16.13;6.70;;;;;;;25.96;42.90;94231.44;5083010;28;20032;-73
2021/05/25 11:07:00;;;;;;;9.65;5.90;;;;;;;26.22;42.52;94217.16;5110928;28;20114;-72
2021/05/25 11:09:28;;;;;;;11.73;6.30;;;;;;;26.42;41.64;94227.50;5111703;28;20121;-72
2021/05/25 11:12:23;;;;;;;15.65;6.63;;;;;;;26.55;40.41;94212.13;5099078;28;20080;-72
2021/05/25 11:15:27;;;;;;;14.27;6.15;;;;;;;26.84;40.06;94205.59;5094100;28;20130;-72
2021/05/25 11:17:56;;;;;;;13.32;6.72;;;;;;;27.01;40.76;94204.63;5042398;28;20025;-72
2021/05/25 11:20:27;;;;;;;9.27;6.00;;;;;;;27.26;40.01;94206.28;5026458;28;20056;-71
2021/05/25 11:22:52;;;;;;;11.38;7.00;;;;;;;27.41;39.27;94200.16;5076174;28;20035;-72
2021/05/25 11:25:38;;;;;;;15.38;7.90;;;;;;;27.55;38.60;94190.22;5106221;28;20034;-72
2021/05/25 11:28:04;;;;;;;10.00;6.32;;;;;;;27.62;38.32;94192.84;5106539;28;20060;-72
2021/05/25 11:30:31;;;;;;;18.02;7.38;;;;;;;27.74;38.58;94184.06;5095270;28;20023;-72
2021/05/25 11:32:57;;;;;;;11.15;6.20;;;;;;;27.84;38.30;94174.09;5107959;28;20110;-73